sensor_id;sensor_type;location;lat;lon;timestamp;pressure;altitude;pressure_sealevel;temperature;humidity
64336;BME280;50672;53.362;-6.240;2023-03-16T00:01:43;99941.47;;;9.22;96.71
64336;BME280;50672;53.362;-6.240;2023-03-16T00:04:10;99928.91;;;9.21;96.38
64336;BME280;50672;53.362;-6.240;2023-03-16T00:06:36;99938.94;;;9.21;96.58
64336;BME280;50672;53.362;-6.240;2023-03-16T00:09:03;99935.34;;;9.20;96.50
64336;BME280;50672;53.362;-6.240;2023-03-16T00:11:30;99928.22;;;9.19;96.43
64336;BME280;50672;53.362;-6.240;2023-03-16T00:13:57;99918.03;;;9.21;96.40
64336;BME280;50672;53.362;-6.240;2023-03-16T00:16:24;99915.13;;;9.23;96.59
64336;BME280;50672;53.362;-6.240;2023-03-16T00:18:51;99907.63;;;9.25;96.69
64336;BME280;50672;53.362;-6.240;2023-03-16T00:21:17;99913.53;;;9.29;96.91
64336;BME280;50672;53.362;-6.240;2023-03-16T00:23:44;99911.13;;;9.34;96.57
64336;BME280;50672;53.362;-6.240;2023-03-16T00:26:11;99920.38;;;9.39;97.11
64336;BME280;50672;53.362;-6.240;2023-03-16T00:28:38;99914.66;;;9.49;96.89
64336;BME280;50672;53.362;-6.240;2023-03-16T00:31:09;99907.63;;;9.55;97.14
64336;BME280;50672;53.362;-6.240;2023-03-16T00:33:41;99912.66;;;9.58;97.24
64336;BME280;50672;53.362;-6.240;2023-03-16T00:36:08;99907.03;;;9.60;97.26
64336;BME280;50672;53.362;-6.240;2023-03-16T00:38:39;99905.63;;;9.64;97.42
64336;BME280;50672;53.362;-6.240;2023-03-16T00:41:07;99901.50;;;9.68;97.43
64336;BME280;50672;53.362;-6.240;2023-03-16T00:43:35;99901.31;;;9.69;97.32
64336;BME280;50672;53.362;-6.240;2023-03-16T00:46:08;99899.06;;;9.73;97.36
64336;BME280;50672;53.362;-6.240;2023-03-16T00:48:37;99905.81;;;9.77;97.34
64336;BME280;50672;53.362;-6.240;2023-03-16T00:51:06;99902.31;;;9.83;97.44
64336;BME280;50672;53.362;-6.240;2023-03-16T00:53:34;99899.59;;;9.83;97.37
64336;BME280;50672;53.362;-6.240;2023-03-16T00:56:02;99899.38;;;9.85;97.39
64336;BME280;50672;53.362;-6.240;2023-03-16T00:58:34;99895.66;;;9.86;97.33
64336;BME280;50672;53.362;-6.240;2023-03-16T01:01:07;99883.09;;;9.85;97.32
64336;BME280;50672;53.362;-6.240;2023-03-16T01:03:35;99893.75;;;9.86;97.24
64336;BME280;50672;53.362;-6.240;2023-03-16T01:06:07;99875.19;;;9.90;97.21
64336;BME280;50672;53.362;-6.240;2023-03-16T01:08:39;99880.06;;;9.95;97.34
64336;BME280;50672;53.362;-6.240;2023-03-16T01:11:19;99865.44;;;9.96;97.03
64336;BME280;50672;53.362;-6.240;2023-03-16T01:13:49;99867.13;;;9.97;97.18
64336;BME280;50672;53.362;-6.240;2023-03-16T01:16:16;99867.13;;;9.97;97.07
64336;BME280;50672;53.362;-6.240;2023-03-16T01:18:49;99875.69;;;9.94;96.92
64336;BME280;50672;53.362;-6.240;2023-03-16T01:21:16;99863.31;;;9.91;96.80
64336;BME280;50672;53.362;-6.240;2023-03-16T01:23:43;99854.94;;;9.92;96.94
64336;BME280;50672;53.362;-6.240;2023-03-16T01:26:10;99858.50;;;9.93;96.77
64336;BME280;50672;53.362;-6.240;2023-03-16T01:28:37;99855.59;;;9.95;96.68
64336;BME280;50672;53.362;-6.240;2023-03-16T01:31:07;99852.50;;;9.98;96.65
64336;BME280;50672;53.362;-6.240;2023-03-16T01:33:35;99848.72;;;9.99;96.84
64336;BME280;50672;53.362;-6.240;2023-03-16T01:36:05;99849.38;;;10.01;96.63
64336;BME280;50672;53.362;-6.240;2023-03-16T01:38:32;99840.00;;;10.03;96.46
64336;BME280;50672;53.362;-6.240;2023-03-16T01:40:59;99839.16;;;10.03;96.74
64336;BME280;50672;53.362;-6.240;2023-03-16T01:43:28;99830.78;;;10.04;96.75
64336;BME280;50672;53.362;-6.240;2023-03-16T01:48:45;99826.22;;;10.05;96.58
64336;BME280;50672;53.362;-6.240;2023-03-16T01:51:27;99836.03;;;10.06;96.29
64336;BME280;50672;53.362;-6.240;2023-03-16T01:54:00;99829.56;;;10.07;96.23
64336;BME280;50672;53.362;-6.240;2023-03-16T01:56:42;99819.56;;;10.07;96.10
64336;BME280;50672;53.362;-6.240;2023-03-16T01:59:15;99815.34;;;10.05;96.29
64336;BME280;50672;53.362;-6.240;2023-03-16T02:01:43;99829.56;;;10.07;96.08
64336;BME280;50672;53.362;-6.240;2023-03-16T02:04:37;99812.63;;;10.05;96.20
64336;BME280;50672;53.362;-6.240;2023-03-16T02:07:06;99827.25;;;10.04;96.35
64336;BME280;50672;53.362;-6.240;2023-03-16T02:09:36;99815.69;;;10.02;96.11
64336;BME280;50672;53.362;-6.240;2023-03-16T02:12:05;99826.59;;;10.02;96.16
64336;BME280;50672;53.362;-6.240;2023-03-16T02:14:33;99815.69;;;10.02;96.01
64336;BME280;50672;53.362;-6.240;2023-03-16T02:17:00;99819.09;;;10.04;95.93
64336;BME280;50672;53.362;-6.240;2023-03-16T02:19:43;99806.13;;;10.06;95.71
64336;BME280;50672;53.362;-6.240;2023-03-16T02:22:12;99809.50;;;10.08;96.34
64336;BME280;50672;53.362;-6.240;2023-03-16T02:24:40;99815.56;;;10.10;96.21
64336;BME280;50672;53.362;-6.240;2023-03-16T02:27:12;99803.28;;;10.14;95.89
64336;BME280;50672;53.362;-6.240;2023-03-16T02:29:53;99792.03;;;10.17;95.84
64336;BME280;50672;53.362;-6.240;2023-03-16T02:32:23;99794.53;;;10.19;95.83
64336;BME280;50672;53.362;-6.240;2023-03-16T02:34:53;99786.59;;;10.17;95.49
64336;BME280;50672;53.362;-6.240;2023-03-16T02:37:20;99787.41;;;10.18;95.94
64336;BME280;50672;53.362;-6.240;2023-03-16T02:39:47;99781.97;;;10.18;95.84
64336;BME280;50672;53.362;-6.240;2023-03-16T02:42:19;99779.06;;;10.19;95.46
64336;BME280;50672;53.362;-6.240;2023-03-16T02:44:56;99770.50;;;10.22;95.30
64336;BME280;50672;53.362;-6.240;2023-03-16T02:47:30;99766.53;;;10.25;95.55
64336;BME280;50672;53.362;-6.240;2023-03-16T02:49:58;99774.69;;;10.25;95.37
64336;BME280;50672;53.362;-6.240;2023-03-16T02:52:25;99768.03;;;10.27;95.50
64336;BME280;50672;53.362;-6.240;2023-03-16T02:54:52;99764.47;;;10.27;95.17
64336;BME280;50672;53.362;-6.240;2023-03-16T02:57:19;99776.19;;;10.27;95.43
64336;BME280;50672;53.362;-6.240;2023-03-16T02:59:46;99778.91;;;10.27;95.08
64336;BME280;50672;53.362;-6.240;2023-03-16T03:02:13;99770.94;;;10.26;95.31
64336;BME280;50672;53.362;-6.240;2023-03-16T03:04:40;99778.25;;;10.25;94.82
64336;BME280;50672;53.362;-6.240;2023-03-16T03:07:07;99785.78;;;10.23;95.10
64336;BME280;50672;53.362;-6.240;2023-03-16T03:09:34;99781.78;;;10.19;94.97
64336;BME280;50672;53.362;-6.240;2023-03-16T03:12:00;99777.56;;;10.17;94.85
64336;BME280;50672;53.362;-6.240;2023-03-16T03:14:28;99775.31;;;10.20;94.92
64336;BME280;50672;53.362;-6.240;2023-03-16T03:16:55;99767.38;;;10.25;94.93
64336;BME280;50672;53.362;-6.240;2023-03-16T03:19:22;99768.88;;;10.28;94.73
64336;BME280;50672;53.362;-6.240;2023-03-16T03:21:49;99757.78;;;10.30;94.34
64336;BME280;50672;53.362;-6.240;2023-03-16T03:24:16;99766.59;;;10.32;94.31
64336;BME280;50672;53.362;-6.240;2023-03-16T03:26:43;99753.00;;;10.32;94.33
64336;BME280;50672;53.362;-6.240;2023-03-16T03:29:10;99746.53;;;10.33;94.41
64336;BME280;50672;53.362;-6.240;2023-03-16T03:31:38;99746.16;;;10.36;94.44
64336;BME280;50672;53.362;-6.240;2023-03-16T03:34:04;99743.44;;;10.36;94.07
64336;BME280;50672;53.362;-6.240;2023-03-16T03:36:33;99747.84;;;10.37;93.92
64336;BME280;50672;53.362;-6.240;2023-03-16T03:39:00;99744.06;;;10.38;93.83
64336;BME280;50672;53.362;-6.240;2023-03-16T03:41:31;99734.88;;;10.39;93.97
64336;BME280;50672;53.362;-6.240;2023-03-16T03:43:59;99737.38;;;10.40;93.84
64336;BME280;50672;53.362;-6.240;2023-03-16T03:46:26;99736.16;;;10.43;93.66
64336;BME280;50672;53.362;-6.240;2023-03-16T03:48:53;99723.38;;;10.43;93.42
64336;BME280;50672;53.362;-6.240;2023-03-16T03:51:20;99730.50;;;10.45;93.11
64336;BME280;50672;53.362;-6.240;2023-03-16T03:53:47;99723.19;;;10.45;93.28
64336;BME280;50672;53.362;-6.240;2023-03-16T03:56:13;99722.81;;;10.48;92.99
64336;BME280;50672;53.362;-6.240;2023-03-16T03:58:40;99723.44;;;10.50;92.81
64336;BME280;50672;53.362;-6.240;2023-03-16T04:01:07;99720.28;;;10.53;92.70
64336;BME280;50672;53.362;-6.240;2023-03-16T04:03:34;99696.66;;;10.54;92.94
64336;BME280;50672;53.362;-6.240;2023-03-16T04:06:01;99706.53;;;10.55;92.55
64336;BME280;50672;53.362;-6.240;2023-03-16T04:08:28;99704.63;;;10.55;92.43
64336;BME280;50672;53.362;-6.240;2023-03-16T04:10:55;99706.53;;;10.55;92.61
64336;BME280;50672;53.362;-6.240;2023-03-16T04:13:22;99692.72;;;10.56;92.39
64336;BME280;50672;53.362;-6.240;2023-03-16T04:15:48;99687.25;;;10.56;92.42
64336;BME280;50672;53.362;-6.240;2023-03-16T04:18:21;99681.81;;;10.56;92.30
64336;BME280;50672;53.362;-6.240;2023-03-16T04:20:48;99687.88;;;10.58;92.04
64336;BME280;50672;53.362;-6.240;2023-03-16T04:23:15;99680.75;;;10.57;91.92
64336;BME280;50672;53.362;-6.240;2023-03-16T04:25:42;99673.66;;;10.56;91.59
64336;BME280;50672;53.362;-6.240;2023-03-16T04:28:11;99678.03;;;10.57;91.83
64336;BME280;50672;53.362;-6.240;2023-03-16T04:30:37;99668.84;;;10.58;91.78
64336;BME280;50672;53.362;-6.240;2023-03-16T04:33:04;99670.13;;;10.63;91.52
64336;BME280;50672;53.362;-6.240;2023-03-16T04:35:32;99673.88;;;10.62;91.67
64336;BME280;50672;53.362;-6.240;2023-03-16T04:37:58;99673.03;;;10.61;91.31
64336;BME280;50672;53.362;-6.240;2023-03-16T04:40:25;99668.63;;;10.60;91.50
64336;BME280;50672;53.362;-6.240;2023-03-16T04:42:53;99670.31;;;10.61;91.41
64336;BME280;50672;53.362;-6.240;2023-03-16T04:45:19;99666.78;;;10.60;91.01
64336;BME280;50672;53.362;-6.240;2023-03-16T04:47:46;99655.25;;;10.58;91.15
64336;BME280;50672;53.362;-6.240;2023-03-16T04:50:13;99652.31;;;10.60;90.81
64336;BME280;50672;53.362;-6.240;2023-03-16T04:52:40;99661.50;;;10.59;91.29
64336;BME280;50672;53.362;-6.240;2023-03-16T04:55:07;99655.25;;;10.58;90.85
64336;BME280;50672;53.362;-6.240;2023-03-16T04:57:34;99644.34;;;10.58;90.88
64336;BME280;50672;53.362;-6.240;2023-03-16T05:00:01;99647.91;;;10.59;90.92
64336;BME280;50672;53.362;-6.240;2023-03-16T05:02:27;99643.53;;;10.58;90.79
64336;BME280;50672;53.362;-6.240;2023-03-16T05:04:54;99643.53;;;10.58;90.53
64336;BME280;50672;53.362;-6.240;2023-03-16T05:07:21;99645.59;;;10.56;90.73
64336;BME280;50672;53.362;-6.240;2023-03-16T05:09:48;99639.13;;;10.57;90.24
64336;BME280;50672;53.362;-6.240;2023-03-16T05:12:14;99641.00;;;10.56;90.54
64336;BME280;50672;53.362;-6.240;2023-03-16T05:14:41;99642.66;;;10.57;90.36
64336;BME280;50672;53.362;-6.240;2023-03-16T05:17:08;99648.75;;;10.59;90.31
64336;BME280;50672;53.362;-6.240;2023-03-16T05:19:35;99653.16;;;10.60;90.46
64336;BME280;50672;53.362;-6.240;2023-03-16T05:22:01;99642.06;;;10.62;90.03
64336;BME280;50672;53.362;-6.240;2023-03-16T05:24:28;99653.78;;;10.63;90.44
64336;BME280;50672;53.362;-6.240;2023-03-16T05:26:55;99635.78;;;10.62;90.42
64336;BME280;50672;53.362;-6.240;2023-03-16T05:29:22;99632.03;;;10.63;90.10
64336;BME280;50672;53.362;-6.240;2023-03-16T05:31:51;99643.94;;;10.62;90.21
64336;BME280;50672;53.362;-6.240;2023-03-16T05:34:18;99648.34;;;10.63;90.11
64336;BME280;50672;53.362;-6.240;2023-03-16T05:36:45;99654.81;;;10.62;90.14
64336;BME280;50672;53.362;-6.240;2023-03-16T05:39:11;99646.66;;;10.62;89.74
64336;BME280;50672;53.362;-6.240;2023-03-16T05:41:39;99633.69;;;10.64;89.87
64336;BME280;50672;53.362;-6.240;2023-03-16T05:44:06;99640.84;;;10.65;90.04
64336;BME280;50672;53.362;-6.240;2023-03-16T05:46:33;99630.97;;;10.64;89.83
64336;BME280;50672;53.362;-6.240;2023-03-16T05:49:01;99631.19;;;10.62;89.52
64336;BME280;50672;53.362;-6.240;2023-03-16T05:51:28;99625.75;;;10.62;89.87
64336;BME280;50672;53.362;-6.240;2023-03-16T05:53:55;99622.38;;;10.60;89.63
64336;BME280;50672;53.362;-6.240;2023-03-16T05:56:26;99632.22;;;10.61;89.74
64336;BME280;50672;53.362;-6.240;2023-03-16T05:58:54;99629.72;;;10.59;89.53
64336;BME280;50672;53.362;-6.240;2023-03-16T06:01:22;99635.78;;;10.62;89.74
64336;BME280;50672;53.362;-6.240;2023-03-16T06:03:49;99629.50;;;10.61;89.59
64336;BME280;50672;53.362;-6.240;2023-03-16T06:06:18;99633.06;;;10.62;89.59
64336;BME280;50672;53.362;-6.240;2023-03-16T06:08:45;99627.41;;;10.63;89.18
64336;BME280;50672;53.362;-6.240;2023-03-16T06:11:13;99629.28;;;10.63;89.46
64336;BME280;50672;53.362;-6.240;2023-03-16T06:13:40;99625.53;;;10.64;89.22
64336;BME280;50672;53.362;-6.240;2023-03-16T06:16:07;99622.81;;;10.64;89.12
64336;BME280;50672;53.362;-6.240;2023-03-16T06:18:34;99618.84;;;10.66;89.23
64336;BME280;50672;53.362;-6.240;2023-03-16T06:21:01;99603.56;;;10.65;89.09
64336;BME280;50672;53.362;-6.240;2023-03-16T06:23:29;99599.81;;;10.66;89.12
64336;BME280;50672;53.362;-6.240;2023-03-16T06:25:56;99596.22;;;10.66;88.90
64336;BME280;50672;53.362;-6.240;2023-03-16T06:28:25;99586.41;;;10.65;89.01
64336;BME280;50672;53.362;-6.240;2023-03-16T06:30:53;99569.22;;;10.64;88.74
64336;BME280;50672;53.362;-6.240;2023-03-16T06:33:21;99571.72;;;10.66;88.71
64336;BME280;50672;53.362;-6.240;2023-03-16T06:35:48;99564.44;;;10.66;88.75
64336;BME280;50672;53.362;-6.240;2023-03-16T06:38:15;99539.50;;;10.69;88.81
64336;BME280;50672;53.362;-6.240;2023-03-16T06:40:43;99552.25;;;10.69;88.90
64336;BME280;50672;53.362;-6.240;2023-03-16T06:43:10;99577.41;;;10.71;88.84
64336;BME280;50672;53.362;-6.240;2023-03-16T06:45:37;99588.09;;;10.72;88.74
64336;BME280;50672;53.362;-6.240;2023-03-16T06:48:04;99589.56;;;10.75;88.42
64336;BME280;50672;53.362;-6.240;2023-03-16T06:50:32;99598.56;;;10.75;88.63
64336;BME280;50672;53.362;-6.240;2023-03-16T06:52:59;99604.44;;;10.79;88.16
64336;BME280;50672;53.362;-6.240;2023-03-16T06:55:26;99603.00;;;10.83;88.04
64336;BME280;50672;53.362;-6.240;2023-03-16T06:57:52;99591.06;;;10.84;88.30
64336;BME280;50672;53.362;-6.240;2023-03-16T07:00:19;99594.63;;;10.85;88.08
64336;BME280;50672;53.362;-6.240;2023-03-16T07:02:47;99590.00;;;10.85;88.22
64336;BME280;50672;53.362;-6.240;2023-03-16T07:05:14;99592.94;;;10.84;87.97
64336;BME280;50672;53.362;-6.240;2023-03-16T07:07:41;99591.47;;;10.88;87.85
64336;BME280;50672;53.362;-6.240;2023-03-16T07:10:13;99588.53;;;10.89;87.99
64336;BME280;50672;53.362;-6.240;2023-03-16T07:12:40;99592.94;;;10.90;87.48
64336;BME280;50672;53.362;-6.240;2023-03-16T07:15:08;99585.59;;;10.91;87.94
64336;BME280;50672;53.362;-6.240;2023-03-16T07:17:35;99579.13;;;10.92;87.46
64336;BME280;50672;53.362;-6.240;2023-03-16T07:20:03;99578.09;;;10.93;87.38
64336;BME280;50672;53.362;-6.240;2023-03-16T07:22:31;99570.97;;;10.92;87.35
64336;BME280;50672;53.362;-6.240;2023-03-16T07:24:58;99577.44;;;10.91;87.27
64336;BME280;50672;53.362;-6.240;2023-03-16T07:27:25;99577.03;;;10.87;87.61
64336;BME280;50672;53.362;-6.240;2023-03-16T07:29:51;99580.78;;;10.86;87.36
64336;BME280;50672;53.362;-6.240;2023-03-16T07:32:19;99587.28;;;10.85;87.23
64336;BME280;50672;53.362;-6.240;2023-03-16T07:34:46;99576.38;;;10.85;87.39
64336;BME280;50672;53.362;-6.240;2023-03-16T07:37:13;99592.72;;;10.85;87.45
64336;BME280;50672;53.362;-6.240;2023-03-16T07:39:47;99598.38;;;10.84;87.63
64336;BME280;50672;53.362;-6.240;2023-03-16T07:42:13;99597.53;;;10.83;87.65
64336;BME280;50672;53.362;-6.240;2023-03-16T07:44:40;99600.47;;;10.82;87.58
64336;BME280;50672;53.362;-6.240;2023-03-16T07:47:11;99603.59;;;10.78;87.70
64336;BME280;50672;53.362;-6.240;2023-03-16T07:49:38;99609.25;;;10.77;87.34
64336;BME280;50672;53.362;-6.240;2023-03-16T07:52:07;99611.13;;;10.76;87.57
64336;BME280;50672;53.362;-6.240;2023-03-16T07:54:34;99603.16;;;10.75;87.52
64336;BME280;50672;53.362;-6.240;2023-03-16T07:57:00;99608.63;;;10.75;87.51
64336;BME280;50672;53.362;-6.240;2023-03-16T07:59:27;99610.31;;;10.76;87.60
64336;BME280;50672;53.362;-6.240;2023-03-16T08:01:54;99603.41;;;10.80;87.68
64336;BME280;50672;53.362;-6.240;2023-03-16T08:04:21;99604.66;;;10.84;87.91
64336;BME280;50672;53.362;-6.240;2023-03-16T08:06:48;99588.53;;;10.89;87.58
64336;BME280;50672;53.362;-6.240;2023-03-16T08:09:15;99599.44;;;10.96;87.44
64336;BME280;50672;53.362;-6.240;2023-03-16T08:11:41;99611.19;;;11.03;87.62
64336;BME280;50672;53.362;-6.240;2023-03-16T08:14:08;99614.13;;;11.08;87.17
64336;BME280;50672;53.362;-6.240;2023-03-16T08:16:35;99602.41;;;11.15;87.10
64336;BME280;50672;53.362;-6.240;2023-03-16T08:19:02;99595.94;;;11.22;87.35
64336;BME280;50672;53.362;-6.240;2023-03-16T08:21:29;99599.06;;;11.33;87.18
64336;BME280;50672;53.362;-6.240;2023-03-16T08:23:56;99591.53;;;11.48;86.77
64336;BME280;50672;53.362;-6.240;2023-03-16T08:26:23;99596.34;;;11.59;86.42
64336;BME280;50672;53.362;-6.240;2023-03-16T08:28:50;99578.94;;;11.74;86.30
64336;BME280;50672;53.362;-6.240;2023-03-16T08:31:19;99585.59;;;11.91;85.99
64336;BME280;50672;53.362;-6.240;2023-03-16T08:33:47;99580.16;;;12.05;85.96
64336;BME280;50672;53.362;-6.240;2023-03-16T08:36:16;99577.38;;;12.18;85.65
64336;BME280;50672;53.362;-6.240;2023-03-16T08:38:43;99579.66;;;12.28;85.42
64336;BME280;50672;53.362;-6.240;2023-03-16T08:41:32;99574.34;;;12.40;84.76
64336;BME280;50672;53.362;-6.240;2023-03-16T08:44:00;99575.53;;;12.57;84.60
64336;BME280;50672;53.362;-6.240;2023-03-16T08:46:28;99575.50;;;12.64;84.19
64336;BME280;50672;53.362;-6.240;2023-03-16T08:48:56;99575.66;;;12.76;83.78
64336;BME280;50672;53.362;-6.240;2023-03-16T08:51:23;99576.41;;;12.90;83.43
64336;BME280;50672;53.362;-6.240;2023-03-16T08:53:50;99580.91;;;13.09;82.90
64336;BME280;50672;53.362;-6.240;2023-03-16T08:56:17;99572.66;;;13.16;82.65
64336;BME280;50672;53.362;-6.240;2023-03-16T08:58:44;99570.72;;;13.23;82.37
64336;BME280;50672;53.362;-6.240;2023-03-16T09:01:15;99564.31;;;13.36;82.17
64336;BME280;50672;53.362;-6.240;2023-03-16T09:03:46;99563.22;;;13.44;81.47
64336;BME280;50672;53.362;-6.240;2023-03-16T09:06:14;99561.91;;;13.46;81.12
64336;BME280;50672;53.362;-6.240;2023-03-16T09:08:41;99556.66;;;13.45;80.51
64336;BME280;50672;53.362;-6.240;2023-03-16T09:11:13;99562.75;;;13.47;80.24
64336;BME280;50672;53.362;-6.240;2023-03-16T09:13:41;99563.88;;;13.39;80.09
64336;BME280;50672;53.362;-6.240;2023-03-16T09:16:08;99565.16;;;13.37;79.54
64336;BME280;50672;53.362;-6.240;2023-03-16T09:18:36;99562.22;;;13.38;79.42
64336;BME280;50672;53.362;-6.240;2023-03-16T09:21:05;99576.75;;;13.57;79.38
64336;BME280;50672;53.362;-6.240;2023-03-16T09:23:33;99580.75;;;13.80;79.19
64336;BME280;50672;53.362;-6.240;2023-03-16T09:26:02;99578.09;;;13.92;78.81
64336;BME280;50672;53.362;-6.240;2023-03-16T09:28:31;99560.41;;;13.94;78.66
64336;BME280;50672;53.362;-6.240;2023-03-16T09:30:58;99563.50;;;13.98;78.25
64336;BME280;50672;53.362;-6.240;2023-03-16T09:33:26;99574.84;;;13.83;77.63
64336;BME280;50672;53.362;-6.240;2023-03-16T09:35:57;99569.88;;;13.73;77.59
64336;BME280;50672;53.362;-6.240;2023-03-16T09:38:24;99565.53;;;13.65;77.60
64336;BME280;50672;53.362;-6.240;2023-03-16T09:40:58;99567.91;;;13.62;77.54
64336;BME280;50672;53.362;-6.240;2023-03-16T09:46:34;99566.53;;;13.71;77.24
64336;BME280;50672;53.362;-6.240;2023-03-16T09:49:01;99563.44;;;13.86;77.48
64336;BME280;50672;53.362;-6.240;2023-03-16T09:51:36;99562.44;;;13.99;77.13
64336;BME280;50672;53.362;-6.240;2023-03-16T09:54:12;99564.97;;;14.00;76.89
64336;BME280;50672;53.362;-6.240;2023-03-16T09:56:43;99577.28;;;14.10;76.71
64336;BME280;50672;53.362;-6.240;2023-03-16T09:59:12;99580.53;;;14.18;76.75
64336;BME280;50672;53.362;-6.240;2023-03-16T10:04:48;99586.78;;;14.44;76.06
64336;BME280;50672;53.362;-6.240;2023-03-16T10:07:29;99584.22;;;14.80;75.88
64336;BME280;50672;53.362;-6.240;2023-03-16T10:12:51;99584.97;;;14.87;74.52
64336;BME280;50672;53.362;-6.240;2023-03-16T10:15:23;99584.13;;;14.86;74.53
64336;BME280;50672;53.362;-6.240;2023-03-16T10:18:03;99580.09;;;14.89;73.89
64336;BME280;50672;53.362;-6.240;2023-03-16T10:20:33;99580.09;;;14.89;73.47
64336;BME280;50672;53.362;-6.240;2023-03-16T10:23:12;99578.81;;;15.03;73.25
64336;BME280;50672;53.362;-6.240;2023-03-16T10:25:48;99574.84;;;15.30;73.13
64336;BME280;50672;53.362;-6.240;2023-03-16T10:28:20;99583.22;;;15.59;72.42
64336;BME280;50672;53.362;-6.240;2023-03-16T10:30:50;99580.63;;;15.87;72.22
64336;BME280;50672;53.362;-6.240;2023-03-16T10:33:28;99575.59;;;15.96;71.57
64336;BME280;50672;53.362;-6.240;2023-03-16T10:36:28;99578.72;;;15.88;71.29
64336;BME280;50672;53.362;-6.240;2023-03-16T10:41:33;99562.25;;;15.64;70.42
64336;BME280;50672;53.362;-6.240;2023-03-16T10:44:05;99560.06;;;15.43;70.27
64336;BME280;50672;53.362;-6.240;2023-03-16T10:46:40;99561.50;;;15.57;70.19
64336;BME280;50672;53.362;-6.240;2023-03-16T10:49:28;99567.88;;;15.81;70.32
64336;BME280;50672;53.362;-6.240;2023-03-16T10:52:12;99556.75;;;15.76;70.10
64336;BME280;50672;53.362;-6.240;2023-03-16T10:54:40;99565.22;;;15.51;69.56
64336;BME280;50672;53.362;-6.240;2023-03-16T10:57:23;99562.34;;;15.34;69.42
64336;BME280;50672;53.362;-6.240;2023-03-16T10:59:53;99563.25;;;15.28;69.86
64336;BME280;50672;53.362;-6.240;2023-03-16T11:02:33;99562.53;;;15.09;69.71
64336;BME280;50672;53.362;-6.240;2023-03-16T11:05:18;99564.16;;;15.10;70.04
64336;BME280;50672;53.362;-6.240;2023-03-16T11:07:57;99567.66;;;15.17;69.86
64336;BME280;50672;53.362;-6.240;2023-03-16T11:10:27;99561.75;;;15.44;69.75
64336;BME280;50672;53.362;-6.240;2023-03-16T11:13:05;99557.81;;;15.63;69.55
64336;BME280;50672;53.362;-6.240;2023-03-16T11:15:36;99567.97;;;15.75;69.41
64336;BME280;50672;53.362;-6.240;2023-03-16T11:18:10;99564.03;;;15.70;69.05
64336;BME280;50672;53.362;-6.240;2023-03-16T11:20:42;99564.41;;;15.86;68.58
64336;BME280;50672;53.362;-6.240;2023-03-16T11:23:14;99574.78;;;16.08;68.40
64336;BME280;50672;53.362;-6.240;2023-03-16T11:25:42;99566.63;;;16.13;67.94
64336;BME280;50672;53.362;-6.240;2023-03-16T11:28:18;99566.00;;;16.34;67.55
64336;BME280;50672;53.362;-6.240;2023-03-16T11:33:37;99565.69;;;16.48;66.57
64336;BME280;50672;53.362;-6.240;2023-03-16T11:46:55;99570.00;;;16.44;64.99
64336;BME280;50672;53.362;-6.240;2023-03-16T11:49:46;99560.69;;;16.45;64.84
64336;BME280;50672;53.362;-6.240;2023-03-16T12:22:24;99536.53;;;19.05;58.66
64336;BME280;50672;53.362;-6.240;2023-03-16T12:24:53;99543.19;;;19.09;58.01
64336;BME280;50672;53.362;-6.240;2023-03-16T12:27:24;99542.19;;;19.21;57.46
64336;BME280;50672;53.362;-6.240;2023-03-16T12:41:00;99542.28;;;20.80;54.66
64336;BME280;50672;53.362;-6.240;2023-03-16T12:48:51;99549.16;;;20.09;53.21
64336;BME280;50672;53.362;-6.240;2023-03-16T12:51:19;99545.38;;;19.77;53.19
64336;BME280;50672;53.362;-6.240;2023-03-16T12:53:53;99544.75;;;19.70;53.20
64336;BME280;50672;53.362;-6.240;2023-03-16T12:56:29;99539.09;;;19.82;53.16
64336;BME280;50672;53.362;-6.240;2023-03-16T12:58:59;99548.81;;;19.52;53.22
64336;BME280;50672;53.362;-6.240;2023-03-16T13:01:36;99548.03;;;19.62;53.04
64336;BME280;50672;53.362;-6.240;2023-03-16T13:06:43;99545.63;;;19.06;53.46
64336;BME280;50672;53.362;-6.240;2023-03-16T13:09:11;99542.16;;;19.91;53.39
64336;BME280;50672;53.362;-6.240;2023-03-16T13:11:45;99553.59;;;20.10;53.04
64336;BME280;50672;53.362;-6.240;2023-03-16T13:14:32;99554.75;;;20.93;52.59
64336;BME280;50672;53.362;-6.240;2023-03-16T13:17:22;99552.25;;;20.96;51.98
64336;BME280;50672;53.362;-6.240;2023-03-16T13:23:53;99552.66;;;20.42;51.30
64336;BME280;50672;53.362;-6.240;2023-03-16T13:26:17;99548.53;;;19.96;51.09
64336;BME280;50672;53.362;-6.240;2023-03-16T13:28:53;99567.13;;;22.29;50.67
64336;BME280;50672;53.362;-6.240;2023-03-16T13:31:36;99560.09;;;22.58;49.31
64336;BME280;50672;53.362;-6.240;2023-03-16T13:34:12;99547.06;;;21.57;49.00
64336;BME280;50672;53.362;-6.240;2023-03-16T13:36:40;99547.81;;;20.80;49.07
64336;BME280;50672;53.362;-6.240;2023-03-16T13:39:17;99534.75;;;22.09;48.87
64336;BME280;50672;53.362;-6.240;2023-03-16T13:42:08;99548.91;;;24.98;47.79
64336;BME280;50672;53.362;-6.240;2023-03-16T13:44:39;99540.03;;;26.14;46.25
64336;BME280;50672;53.362;-6.240;2023-03-16T13:47:07;99535.66;;;27.00;44.79
64336;BME280;50672;53.362;-6.240;2023-03-16T13:50:02;99546.47;;;28.72;43.09
64336;BME280;50672;53.362;-6.240;2023-03-16T13:52:33;99523.91;;;29.21;41.55
64336;BME280;50672;53.362;-6.240;2023-03-16T13:55:06;99535.38;;;27.47;40.82
64336;BME280;50672;53.362;-6.240;2023-03-16T13:57:40;99528.69;;;26.60;40.60
64336;BME280;50672;53.362;-6.240;2023-03-16T14:00:16;99543.28;;;28.56;39.51
64336;BME280;50672;53.362;-6.240;2023-03-16T14:02:50;99525.72;;;30.38;38.89
64336;BME280;50672;53.362;-6.240;2023-03-16T14:05:21;99511.81;;;31.81;37.69
64336;BME280;50672;53.362;-6.240;2023-03-16T14:07:50;99522.41;;;33.24;36.85
64336;BME280;50672;53.362;-6.240;2023-03-16T14:10:18;99523.06;;;34.25;35.75
64336;BME280;50672;53.362;-6.240;2023-03-16T14:12:56;99532.00;;;34.79;35.05
64336;BME280;50672;53.362;-6.240;2023-03-16T14:15:25;99506.69;;;35.21;34.20
64336;BME280;50672;53.362;-6.240;2023-03-16T14:17:54;99528.72;;;35.32;33.20
64336;BME280;50672;53.362;-6.240;2023-03-16T14:20:30;99507.97;;;35.67;32.64
64336;BME280;50672;53.362;-6.240;2023-03-16T14:23:16;99514.53;;;35.94;31.54
64336;BME280;50672;53.362;-6.240;2023-03-16T14:25:43;99503.06;;;36.33;31.04